createdAt,value
2022-09-07T03:51:51.319Z,17.33
2022-09-07T03:54:54.230Z,18.23
2022-09-07T03:57:57.165Z,14.18
2022-09-07T04:01:04.379Z,15.13
2022-09-07T04:04:07.088Z,13.60
2022-09-07T04:07:10.183Z,11.90
2022-09-07T04:13:14.993Z,16.20
2022-09-07T04:16:20.808Z,10.95
2022-09-07T04:19:23.599Z,12.73
2022-09-07T04:25:28.724Z,13.05
2022-09-07T04:28:31.634Z,11.40
2022-09-07T04:31:35.449Z,13.50
2022-09-07T04:34:38.179Z,12.50
2022-09-07T04:37:40.859Z,14.67
2022-09-07T04:40:44.069Z,14.05
2022-09-07T04:43:47.207Z,14.45
2022-09-07T04:46:49.866Z,11.65
2022-09-07T04:49:53.143Z,15.50
2022-09-07T04:52:55.783Z,12.48
2022-09-07T04:55:58.736Z,15.10
2022-09-07T05:02:04.320Z,15.48
2022-09-07T05:05:07.467Z,12.15
2022-09-07T05:08:09.862Z,14.38
2022-09-07T05:11:14.072Z,14.82
2022-09-07T05:14:16.414Z,10.85
2022-09-07T05:17:19.711Z,11.45
2022-09-07T05:20:22.244Z,10.80
2022-09-07T05:23:25.393Z,10.70
2022-09-07T05:26:30.632Z,14.45
2022-09-07T05:32:56.428Z,9.95
2022-09-07T05:39:01.678Z,11.25
2022-09-07T05:42:04.706Z,10.27
2022-09-07T05:45:07.549Z,10.85
2022-09-07T05:48:10.383Z,10.68
2022-09-07T05:51:14.590Z,11.07
2022-09-07T05:54:17.280Z,10.93
2022-09-07T05:57:19.784Z,10.80
2022-09-07T06:00:22.611Z,9.65
2022-09-07T06:03:25.378Z,11.12
2022-09-07T06:06:27.791Z,9.90
2022-09-07T06:09:30.859Z,9.60
2022-09-07T06:12:33.844Z,10.32
2022-09-07T06:15:36.524Z,15.88
2022-09-07T06:18:41.346Z,15.65
2022-09-07T06:21:44.011Z,12.00
2022-09-07T06:24:46.529Z,11.32
2022-09-07T06:27:49.648Z,11.10
2022-09-07T06:30:52.055Z,12.20
2022-09-07T06:33:57.302Z,10.25
2022-09-07T06:36:59.879Z,11.25
2022-09-07T06:40:03.766Z,10.55
2022-09-07T06:43:06.273Z,10.18
2022-09-07T06:49:31.301Z,12.88
2022-09-07T06:55:58.459Z,9.43
2022-09-07T06:59:01.214Z,10.05
2022-09-07T07:02:04.834Z,12.35
2022-09-07T07:05:07.790Z,12.52
2022-09-07T07:08:10.245Z,12.30
2022-09-07T07:14:16.422Z,10.85
2022-09-07T07:20:21.817Z,9.80
2022-09-07T07:23:24.725Z,11.52
2022-09-07T07:26:27.160Z,13.85
2022-09-07T07:29:29.908Z,10.55
2022-09-07T07:32:32.231Z,11.27
2022-09-07T07:35:35.308Z,9.95
2022-09-07T07:42:03.232Z,10.73
2022-09-07T07:48:34.325Z,14.25
2022-09-07T07:54:59.787Z,11.53
2022-09-07T07:58:02.093Z,12.30
2022-09-07T08:01:12.820Z,10.40
2022-09-07T08:04:15.479Z,9.40
2022-09-07T08:07:17.845Z,10.32
2022-09-07T08:10:20.551Z,9.65
2022-09-07T08:13:22.885Z,11.00
2022-09-07T08:16:25.929Z,8.57
2022-09-07T08:19:28.545Z,10.20
2022-09-07T08:22:34.765Z,12.02
2022-09-07T08:25:37.538Z,9.93
2022-09-07T08:28:44.008Z,8.60
2022-09-07T08:31:46.509Z,11.90
2022-09-07T08:34:49.380Z,8.75
2022-09-07T08:37:51.760Z,10.68
2022-09-07T08:40:54.597Z,11.00
2022-09-07T08:44:03.509Z,12.07
2022-09-07T08:47:33.673Z,10.57
2022-09-07T08:50:45.938Z,8.15
2022-09-07T08:53:50.208Z,10.40
2022-09-07T09:00:19.071Z,9.70
2022-09-07T09:04:14.674Z,8.43
2022-09-07T09:07:10.525Z,7.50
2022-09-07T09:10:28.782Z,8.32
2022-09-07T09:13:52.074Z,11.45
2022-09-07T09:16:59.763Z,10.88
2022-09-07T09:20:05.611Z,10.05
2022-09-07T09:23:15.866Z,13.10
2022-09-07T09:26:24.181Z,13.20
2022-09-07T09:29:26.496Z,12.32
2022-09-07T09:33:13.983Z,9.32
2022-09-07T09:36:34.240Z,9.13
2022-09-07T09:39:38.472Z,10.25
2022-09-07T09:42:40.900Z,10.50
2022-09-07T09:49:23.977Z,8.98
2022-09-07T09:52:33.785Z,10.63
2022-09-07T09:55:40.951Z,9.32
2022-09-07T10:05:51.703Z,9.13
2022-09-07T10:08:59.268Z,9.40
2022-09-07T10:12:07.006Z,11.35
2022-09-07T10:15:28.599Z,9.98
2022-09-07T10:18:38.403Z,10.05
2022-09-07T10:21:41.100Z,9.50
2022-09-07T10:24:43.818Z,9.93
2022-09-07T10:27:46.780Z,13.65
2022-09-07T10:31:01.542Z,10.10
2022-09-07T10:34:26.039Z,9.30
2022-09-07T10:38:08.439Z,10.18
2022-09-07T10:41:11.509Z,10.18
2022-09-07T10:44:49.440Z,11.15
2022-09-07T10:48:02.297Z,9.52
2022-09-07T10:51:14.451Z,13.15
2022-09-07T10:54:31.890Z,9.53
2022-09-07T10:57:56.718Z,8.70
2022-09-07T11:01:21.673Z,11.55
2022-09-07T11:04:34.075Z,9.02
2022-09-07T11:07:51.726Z,10.50
2022-09-07T11:15:09.584Z,9.13
2022-09-07T11:18:22.602Z,10.32
2022-09-07T11:28:33.112Z,9.65
2022-09-07T11:31:45.103Z,9.48
2022-09-07T11:34:57.457Z,11.97
2022-09-07T11:38:12.737Z,10.52
2022-09-07T11:41:15.077Z,15.32
2022-09-07T11:44:24.775Z,13.32
2022-09-07T11:47:27.037Z,14.05
2022-09-07T11:50:35.788Z,16.17
2022-09-07T11:53:46.380Z,16.08
2022-09-07T11:56:57.479Z,17.85
2022-09-07T12:00:13.842Z,17.65
2022-09-07T12:03:38.428Z,17.17
2022-09-07T12:07:18.150Z,16.67
2022-09-07T12:10:37.683Z,17.87
2022-09-07T12:14:12.489Z,16.12
2022-09-07T12:17:31.023Z,20.60
2022-09-07T12:20:43.181Z,18.70
2022-09-07T12:23:46.461Z,17.95
2022-09-07T12:26:50.350Z,17.05
2022-09-07T12:29:59.547Z,20.25
2022-09-07T12:33:18.422Z,19.10
2022-09-07T12:36:27.100Z,17.75
2022-09-07T12:39:33.262Z,17.40
2022-09-07T12:42:37.521Z,16.98
2022-09-07T12:45:40.014Z,17.62
2022-09-07T12:52:34.982Z,16.85
2022-09-07T12:59:20.439Z,17.77
2022-09-07T13:02:41.883Z,16.90
2022-09-07T13:06:14.809Z,16.35
2022-09-07T13:09:23.702Z,15.57
2022-09-07T13:12:53.702Z,14.77
2022-09-07T13:16:05.815Z,16.02
2022-09-07T13:19:14.959Z,14.93
2022-09-07T13:22:46.717Z,14.70
2022-09-07T13:25:55.824Z,15.07
2022-09-07T13:29:03.063Z,23.25
2022-09-07T13:33:07.953Z,16.02
2022-09-07T13:35:48.144Z,14.30
2022-09-07T13:38:51.005Z,15.93
2022-09-07T13:41:58.005Z,14.13
2022-09-07T13:45:02.475Z,14.87
2022-09-07T13:48:21.701Z,14.32
2022-09-07T13:51:43.126Z,12.45
2022-09-07T13:55:11.161Z,14.57
2022-09-07T13:58:19.835Z,16.75
2022-09-07T14:01:25.992Z,13.82
2022-09-07T14:04:41.663Z,11.60
2022-09-07T14:07:45.965Z,12.77
2022-09-07T14:10:49.003Z,11.25
2022-09-07T14:14:18.120Z,14.50
2022-09-07T14:17:20.881Z,15.43
2022-09-07T14:20:24.687Z,16.50
2022-09-07T14:23:30.555Z,13.85
2022-09-07T14:26:34.215Z,12.85
2022-09-07T14:29:37.030Z,12.48
2022-09-07T14:32:39.550Z,11.57
2022-09-07T14:35:42.161Z,14.95
2022-09-07T14:42:11.795Z,10.80
2022-09-07T14:45:23.339Z,11.43
2022-09-07T14:48:32.223Z,12.60
2022-09-07T14:51:36.770Z,10.30
2022-09-07T14:54:39.863Z,13.38
2022-09-07T15:01:37.007Z,11.12
2022-09-07T15:04:19.367Z,12.27
2022-09-07T15:07:49.738Z,15.07
2022-09-07T15:17:47.831Z,11.27
2022-09-07T15:23:55.462Z,15.23
2022-09-07T15:27:05.219Z,13.45
2022-09-07T15:30:11.247Z,12.25
2022-09-07T15:33:13.817Z,14.43
2022-09-07T15:36:17.109Z,12.68
2022-09-07T15:39:25.689Z,13.98
2022-09-07T15:45:51.365Z,14.60
2022-09-07T15:48:55.274Z,16.17
2022-09-07T15:52:05.690Z,13.77
2022-09-07T15:55:09.244Z,12.80
